Time;durP1;ratioP1;P1;durP2;ratioP2;P2;SDS_P1;SDS_P2;PMS_P1;PMS_P2;Temp;Humidity;BMP_temperature;BMP_pressure;BME280_temperature;BME280_humidity;BME280_pressure;Samples;Min_cycle;Max_cycle;Signal;HPM_P1;HPM_P2
2022/09/30 00:01:08;;;;;;;;;28.00;27.00;;;;;13.02;63.60;100428.22;5037589;28;45438;-71
2022/09/30 00:03:35;;;;;;;;;27.33;23.67;;;;;13.05;63.87;100437.72;5032419;28;46683;-68
2022/09/30 00:06:03;;;;;;;;;28.33;26.00;;;;;12.97;64.04;100430.53;5036320;28;45591;-68
2022/09/30 00:08:29;;;;;;;;;24.33;24.00;;;;;12.94;63.67;100425.53;5035281;28;47616;-70
2022/09/30 00:11:19;;;;;;;;;27.67;22.00;;;;;13.03;63.42;100445.91;5035903;28;45476;-71
2022/09/30 00:13:47;;;;;;;;;23.67;22.67;;;;;12.95;63.48;100429.88;5026082;28;45538;-70
2022/09/30 00:16:15;;;;;;;;;25.67;25.67;;;;;13.03;63.73;100445.06;5034361;28;45572;-69
2022/09/30 00:18:41;;;;;;;;;29.00;29.00;;;;;11.56;63.63;100204.16;5034282;28;45898;-70
2022/09/30 00:21:08;;;;;;;;;27.67;26.67;;;;;13.02;63.34;100444.22;5034758;28;45571;-69
2022/09/30 00:23:36;;;;;;;;;26.67;24.33;;;;;13.02;63.75;100443.41;5035405;28;45631;-68
2022/09/30 00:26:05;;;;;;;;;27.67;23.00;;;;;12.99;63.35;100439.19;5034723;28;45338;-69
2022/09/30 00:28:30;;;;;;;;;18.33;18.33;;;;;13.00;63.02;100435.53;5035884;28;46653;-70
2022/09/30 00:31:00;;;;;;;;;24.67;24.67;;;;;12.89;63.54;100427.88;5049931;28;45471;-69
2022/09/30 00:33:26;;;;;;;;;35.33;31.00;;;;;12.87;63.17;100435.22;5035728;28;45467;-69
2022/09/30 00:35:51;;;;;;;;;35.33;32.33;;;;;12.94;63.13;100446.03;5051227;28;45378;-69
2022/09/30 00:38:16;;;;;;;;;28.33;25.33;;;;;12.93;63.76;100444.38;5036091;28;46402;-68
2022/09/30 00:40:42;;;;;;;;;21.00;18.33;;;;;12.88;63.65;100436.88;5042218;28;45954;-70
2022/09/30 00:43:19;;;;;;;;;23.00;22.00;;;;;12.84;63.87;100427.53;5034198;28;45372;-68
2022/09/30 00:45:52;;;;;;;;;25.33;24.00;;;;;12.37;63.96;100353.47;5036215;28;45254;-68
2022/09/30 00:48:33;;;;;;;;;24.00;22.33;;;;;12.42;63.37;100356.50;5038354;28;45526;-69
2022/09/30 00:51:02;;;;;;;;;22.33;22.33;;;;;12.89;63.73;100448.38;5038904;28;45340;-70
2022/09/30 00:53:29;;;;;;;;;28.33;25.00;;;;;12.79;63.89;100430.69;5039190;28;45448;-70
2022/09/30 00:56:06;;;;;;;;;24.00;22.00;;;;;12.54;63.80;100385.50;5039465;28;45455;-69
2022/09/30 00:58:43;;;;;;;;;26.67;23.67;;;;;12.86;64.06;100446.88;5038541;28;46090;-68
2022/09/30 01:01:09;;;;;;;;;24.00;22.67;;;;;12.73;63.95;100427.84;5039031;28;45812;-68
2022/09/30 01:03:39;;;;;;;;;22.67;21.67;;;;;12.63;63.88;100416.53;5045722;28;45387;-69
2022/09/30 01:06:05;;;;;;;;;22.33;22.33;;;;;12.65;64.12;100425.19;5059615;27;45469;-69
2022/09/30 01:08:36;;;;;;;;;24.00;23.67;;;;;12.67;64.06;100425.88;5058535;28;45624;-70
2022/09/30 01:11:01;;;;;;;;;24.33;22.67;;;;;12.70;63.76;100444.19;5074213;28;46482;-69
2022/09/30 01:13:29;;;;;;;;;20.33;20.33;;;;;12.66;64.15;100442.88;5059506;28;45348;-71
2022/09/30 01:16:15;;;;;;;;;22.33;22.00;;;;;12.73;64.63;100466.03;5059604;28;45240;-69
2022/09/30 01:18:58;;;;;;;;;22.67;21.00;;;;;12.73;63.89;100465.19;5058712;28;46048;-69
2022/09/30 01:21:57;;;;;;;;;22.00;22.00;;;;;12.72;64.07;100463.53;5059135;28;45313;-69
2022/09/30 01:24:44;;;;;;;;;24.00;21.33;;;;;12.72;63.92;100459.03;5074468;27;45484;-70
2022/09/30 01:27:47;;;;;;;;;22.00;22.00;;;;;12.73;63.77;100458.03;5067944;28;45553;-69
2022/09/30 01:30:19;;;;;;;;;20.67;20.67;;;;;12.73;64.03;100446.53;5052313;28;47806;-69
2022/09/30 01:33:02;;;;;;;;;21.00;21.00;;;;;12.65;64.02;100441.19;5070848;28;45361;-69
2022/09/30 01:35:44;;;;;;;;;23.00;21.33;;;;;12.71;64.05;100454.69;5053155;28;45441;-69
2022/09/30 01:38:34;;;;;;;;;24.33;20.33;;;;;12.71;63.88;100451.19;5058769;28;45565;-70
2022/09/30 01:41:09;;;;;;;;;21.33;20.00;;;;;12.69;64.25;100447.88;5058452;28;45717;-69
2022/09/30 01:43:47;;;;;;;;;19.67;18.67;;;;;12.64;63.77;100442.19;5058330;28;45471;-68
2022/09/30 01:46:35;;;;;;;;;22.67;21.33;;;;;12.56;64.00;100439.50;5057414;28;45215;-68
2022/09/30 01:49:04;;;;;;;;;22.67;20.33;;;;;12.67;63.97;100449.88;5058562;28;45481;-69
2022/09/30 01:51:44;;;;;;;;;22.00;22.00;;;;;12.66;64.36;100458.88;5055828;28;45459;-68
2022/09/30 01:54:23;;;;;;;;;21.33;21.33;;;;;12.58;64.26;100457.00;5057837;28;45361;-69
2022/09/30 01:56:54;;;;;;;;;24.00;23.33;;;;;12.56;64.60;100459.00;5059172;28;45221;-69
2022/09/30 01:59:35;;;;;;;;;23.67;23.67;;;;;12.56;64.29;100460.84;5058564;28;45359;-69
2022/09/30 02:02:09;;;;;;;;;26.67;22.00;;;;;12.57;64.23;100465.16;5073982;28;47632;-70
2022/09/30 02:04:43;;;;;;;;;19.00;18.33;;;;;12.48;64.29;100443.00;5042700;28;45160;-68
2022/09/30 02:07:27;;;;;;;;;20.33;18.00;;;;;12.53;64.46;100458.50;5045008;28;45344;-68
2022/09/30 02:10:02;;;;;;;;;18.67;17.67;;;;;12.58;64.87;100458.84;5016901;28;45523;-69
2022/09/30 02:12:32;;;;;;;;;21.00;19.00;;;;;12.55;64.49;100460.00;5037313;28;46004;-69
2022/09/30 02:15:03;;;;;;;;;20.67;20.33;;;;;12.55;64.79;100459.16;5038211;28;45365;-69
2022/09/30 02:17:42;;;;;;;;;21.67;18.67;;;;;12.47;64.77;100458.16;5037760;28;47129;-69
2022/09/30 02:20:17;;;;;;;;;19.00;19.00;;;;;12.51;64.96;100466.66;5037780;28;45606;-70
2022/09/30 02:22:48;;;;;;;;;21.33;19.33;;;;;12.51;64.90;100461.34;5037513;28;46023;-70
2022/09/30 02:25:29;;;;;;;;;19.33;19.00;;;;;12.48;64.75;100457.16;5049362;28;46338;-69
2022/09/30 02:28:00;;;;;;;;;19.00;17.67;;;;;12.49;65.25;100456.16;5037764;28;45568;-69
2022/09/30 02:30:27;;;;;;;;;21.67;20.67;;;;;12.48;65.03;100456.34;5036410;28;45913;-70
2022/09/30 02:32:59;;;;;;;;;21.67;20.00;;;;;12.37;65.24;100443.28;5036546;28;47895;-70
2022/09/30 02:35:37;;;;;;;;;19.33;17.33;;;;;12.45;65.00;100440.66;5035834;28;46160;-70
2022/09/30 02:38:11;;;;;;;;;22.67;21.67;;;;;12.45;64.83;100446.84;5038039;28;45478;-69
2022/09/30 02:40:49;;;;;;;;;18.67;16.67;;;;;12.45;65.00;100451.34;5037881;28;45452;-69
2022/09/30 02:43:19;;;;;;;;;18.67;18.67;;;;;12.34;65.45;100439.13;5037307;28;45488;-69
2022/09/30 02:46:22;;;;;;;;;19.33;18.33;;;;;12.43;65.24;100448.81;5036870;28;45392;-68
2022/09/30 02:48:53;;;;;;;;;18.00;16.00;;;;;12.42;65.39;100449.81;5037621;28;46411;-69
2022/09/30 02:51:29;;;;;;;;;17.67;17.67;;;;;12.28;65.42;100429.13;5037741;28;45592;-69
2022/09/30 02:54:00;;;;;;;;;20.00;20.00;;;;;12.38;65.47;100461.78;5035351;28;48363;-69
2022/09/30 02:56:40;;;;;;;;;19.67;19.33;;;;;12.36;65.63;100469.13;5037499;28;45443;-69
2022/09/30 02:59:05;;;;;;;;;23.33;22.00;;;;;11.27;65.21;100290.56;5030211;28;45297;-69
2022/09/30 03:01:31;;;;;;;;;7.67;6.00;;;;;12.26;65.56;100452.44;5037545;28;45498;-69
2022/09/30 03:04:02;;;;;;;;;21.00;19.67;;;;;12.28;65.91;100455.78;5054763;28;46695;-69
2022/09/30 03:06:28;;;;;;;;;21.00;20.00;;;;;12.33;65.69;100471.28;5064391;28;45258;-68
2022/09/30 03:08:53;;;;;;;;;21.00;18.00;;;;;12.24;65.57;100464.25;5073748;28;45377;-69
2022/09/30 03:11:22;;;;;;;;;18.33;17.67;;;;;12.15;65.82;100444.72;5064133;28;45476;-70
2022/09/30 03:14:16;;;;;;;;;19.67;18.00;;;;;12.18;65.92;100463.06;5066237;28;47114;-69
2022/09/30 03:17:16;;;;;;;;;20.33;17.00;;;;;12.12;66.43;100461.88;5050682;28;45259;-70
2022/09/30 03:20:09;;;;;;;;;23.00;21.33;;;;;12.25;66.26;100492.59;5066043;28;45439;-69
2022/09/30 03:23:12;;;;;;;;;18.00;18.00;;;;;12.25;65.93;100498.75;5063861;28;45456;-70
2022/09/30 03:25:50;;;;;;;;;18.33;16.67;;;;;12.26;66.00;100497.75;5064929;28;45350;-69
2022/09/30 03:28:31;;;;;;;;;16.33;15.33;;;;;12.22;65.77;100501.75;5077296;28;45493;-69
2022/09/30 03:31:16;;;;;;;;;19.00;16.33;;;;;12.08;66.28;100489.00;5060290;28;45306;-70
2022/09/30 03:34:04;;;;;;;;;20.67;20.00;;;;;12.21;65.75;100518.69;5059246;28;45601;-70
2022/09/30 03:36:51;;;;;;;;;22.33;21.33;;;;;12.11;65.91;100508.19;5044831;28;45612;-70
2022/09/30 03:39:25;;;;;;;;;19.67;18.00;;;;;12.21;65.87;100523.19;5055327;28;46526;-68
2022/09/30 03:42:06;;;;;;;;;17.00;17.00;;;;;11.70;66.18;100451.16;5073144;28;45785;-68
2022/09/30 03:44:40;;;;;;;;;22.67;20.67;;;;;12.12;66.38;100528.50;5053331;28;45940;-68
2022/09/30 03:47:10;;;;;;;;;19.67;16.67;;;;;12.14;66.06;100528.34;5068948;28;46544;-69
2022/09/30 03:49:41;;;;;;;;;20.67;20.67;;;;;12.11;66.47;100534.00;5065445;28;45365;-68
2022/09/30 03:52:10;;;;;;;;;22.33;19.00;;;;;12.17;66.25;100547.50;5079895;27;45503;-70
2022/09/30 03:54:45;;;;;;;;;16.67;15.67;;;;;12.16;66.28;100563.66;5063717;28;45343;-71
2022/09/30 03:57:10;;;;;;;;;23.00;22.00;;;;;12.16;66.31;100569.81;5064152;28;45791;-70
2022/09/30 03:59:36;;;;;;;;;18.33;18.33;;;;;11.85;66.38;100524.22;5060917;28;45497;-69
2022/09/30 04:02:02;;;;;;;;;21.67;17.00;;;;;11.57;65.98;100478.22;5060223;28;55375;-70
2022/09/30 04:04:27;;;;;;;;;19.00;19.00;;;;;12.04;66.25;100562.28;5064599;28;45419;-69
2022/09/30 04:06:52;;;;;;;;;13.67;13.67;;;;;11.93;66.12;100547.38;5062654;28;68020;-68
2022/09/30 04:09:18;;;;;;;;;18.00;18.00;;;;;12.03;66.46;100573.94;5064897;28;47986;-68
2022/09/30 04:11:43;;;;;;;;;19.67;17.67;;;;;11.72;66.46;100528.25;5054990;28;45678;-69
2022/09/30 04:14:08;;;;;;;;;15.33;15.33;;;;;12.04;66.65;100600.41;5060674;28;45189;-68
2022/09/30 04:16:34;;;;;;;;;18.33;17.33;;;;;12.03;66.34;100596.09;5065627;28;45503;-70
2022/09/30 04:18:59;;;;;;;;;18.67;17.67;;;;;12.04;66.49;100602.25;5065036;28;45339;-69
2022/09/30 04:21:27;;;;;;;;;19.00;17.00;;;;;11.48;66.05;100516.44;5065630;28;45830;-69
2022/09/30 04:23:53;;;;;;;;;12.33;12.33;;;;;11.93;66.63;100599.81;5067951;28;45375;-69
2022/09/30 04:26:19;;;;;;;;;17.00;14.67;;;;;11.91;66.53;100599.97;5061656;27;46033;-70
2022/09/30 04:28:45;;;;;;;;;20.33;20.33;;;;;11.99;66.53;100615.19;5047613;28;46016;-69
2022/09/30 04:31:12;;;;;;;;;18.67;17.67;;;;;11.84;66.44;100594.44;5068051;28;45332;-69
2022/09/30 04:33:38;;;;;;;;;15.67;15.67;;;;;11.87;66.75;100606.63;5066644;28;45532;-69
2022/09/30 04:36:05;;;;;;;;;17.00;14.33;;;;;11.89;66.38;100609.97;5068262;28;45572;-70
2022/09/30 04:38:31;;;;;;;;;17.67;17.67;;;;;11.68;66.76;100578.31;5059017;28;45440;-68
2022/09/30 04:41:00;;;;;;;;;20.00;19.00;;;;;11.58;66.32;100558.91;5063179;28;45461;-70
2022/09/30 04:43:25;;;;;;;;;17.33;16.00;;;;;11.84;66.60;100606.94;5064751;28;45496;-70
2022/09/30 04:45:51;;;;;;;;;19.67;18.67;;;;;11.82;66.29;100609.75;5065865;28;47328;-69
2022/09/30 04:48:17;;;;;;;;;20.00;19.67;;;;;11.93;66.87;100631.78;5069399;28;45250;-70
2022/09/30 04:50:43;;;;;;;;;22.33;20.67;;;;;11.84;67.06;100612.25;5073095;28;45505;-68
2022/09/30 04:53:11;;;;;;;;;18.00;17.00;;;;;11.90;66.42;100626.78;5072915;28;45485;-69
2022/09/30 04:55:36;;;;;;;;;23.67;19.67;;;;;11.38;66.77;100542.28;5055798;28;46850;-70
2022/09/30 04:58:02;;;;;;;;;15.33;15.33;;;;;11.73;66.68;100601.81;5068846;28;45333;-69
2022/09/30 05:00:27;;;;;;;;;19.67;18.00;;;;;11.78;66.62;100613.69;5059730;28;45421;-68
2022/09/30 05:02:52;;;;;;;;;19.67;18.67;;;;;11.81;66.72;100620.53;5070338;28;45568;-69
2022/09/30 05:05:18;;;;;;;;;16.00;15.67;;;;;11.83;66.38;100635.41;5035643;28;46361;-69
2022/09/30 05:07:43;;;;;;;;;19.00;18.67;;;;;11.92;66.43;100648.78;5034635;28;53924;-68
2022/09/30 05:10:12;;;;;;;;;19.67;18.67;;;;;11.76;66.44;100620.97;5035732;28;45367;-71
2022/09/30 05:12:39;;;;;;;;;19.00;14.67;;;;;11.85;66.79;100638.75;5036455;28;45160;-70
2022/09/30 05:15:06;;;;;;;;;24.67;18.67;;;;;11.90;66.25;100648.09;5036618;28;45851;-70
2022/09/30 05:17:31;;;;;;;;;15.67;15.33;;;;;11.86;66.21;100639.59;5035786;28;45398;-69
2022/09/30 05:19:57;;;;;;;;;14.67;13.33;;;;;11.91;66.37;100649.75;5059352;28;45521;-70
2022/09/30 05:22:23;;;;;;;;;18.33;18.00;;;;;11.91;66.05;100649.75;5026147;28;45566;-71
2022/09/30 05:24:50;;;;;;;;;16.00;16.00;;;;;11.82;65.99;100647.06;5033276;28;47521;-70
2022/09/30 05:27:16;;;;;;;;;16.33;15.33;;;;;11.16;65.96;100538.28;5034676;28;45605;-70
2022/09/30 05:29:42;;;;;;;;;16.00;16.00;;;;;11.73;66.28;100637.28;5035218;28;45466;-73
2022/09/30 05:32:08;;;;;;;;;17.33;16.67;;;;;11.48;65.87;100611.44;5039281;28;45346;-69
2022/09/30 05:34:33;;;;;;;;;17.33;17.00;;;;;11.76;66.11;100655.59;5044573;28;45530;-72
2022/09/30 05:36:59;;;;;;;;;17.00;16.00;;;;;11.34;66.18;100578.19;5036796;28;45535;-70
2022/09/30 05:39:24;;;;;;;;;23.67;19.33;;;;;11.80;66.43;100657.00;5038106;28;47341;-70
2022/09/30 05:41:49;;;;;;;;;18.67;17.67;;;;;11.66;66.04;100644.22;5059710;28;45493;-69
2022/09/30 05:44:15;;;;;;;;;19.67;17.00;;;;;11.84;66.32;100674.38;5038576;28;46250;-70
2022/09/30 05:46:42;;;;;;;;;16.33;16.33;;;;;11.67;65.74;100648.56;5038441;28;45356;-69
2022/09/30 05:49:07;;;;;;;;;18.00;18.00;;;;;11.80;65.91;100674.81;5027275;28;46638;-69
2022/09/30 05:51:33;;;;;;;;;18.67;18.67;;;;;10.73;66.44;100503.63;5053434;28;45162;-71
2022/09/30 05:53:58;;;;;;;;;20.33;19.33;;;;;11.40;66.02;100616.66;5038317;28;46489;-70
2022/09/30 05:56:24;;;;;;;;;21.67;19.67;;;;;11.27;66.32;100599.28;5040308;28;45483;-69
2022/09/30 05:58:49;;;;;;;;;19.33;19.00;;;;;11.76;66.21;100673.41;5037689;28;45503;-71
2022/09/30 06:01:15;;;;;;;;;19.33;17.67;;;;;11.64;65.80;100666.66;5045025;28;45895;-72
2022/09/30 06:03:42;;;;;;;;;20.33;16.00;;;;;10.10;66.16;100421.19;5046082;28;46448;-72
2022/09/30 06:06:08;;;;;;;;;16.67;16.67;;;;;11.57;66.74;100658.44;5059563;28;45289;-73
2022/09/30 06:08:34;;;;;;;;;18.00;17.00;;;;;11.66;66.28;100662.84;5048440;28;45532;-70
2022/09/30 06:10:59;;;;;;;;;19.00;17.33;;;;;11.83;66.34;100690.50;5038327;28;45475;-70
2022/09/30 06:13:26;;;;;;;;;20.33;20.00;;;;;11.68;65.93;100671.53;5046714;28;47669;-71
2022/09/30 06:15:58;;;;;;;;;18.33;16.67;;;;;11.88;65.95;100702.38;5037747;28;45534;-71
2022/09/30 06:18:26;;;;;;;;;18.67;17.67;;;;;11.77;65.83;100675.91;5041125;28;45546;-71
2022/09/30 06:20:54;;;;;;;;;18.67;16.67;;;;;11.96;65.70;100695.44;5041319;28;45252;-78
2022/09/30 06:23:19;;;;;;;;;24.00;21.33;;;;;11.91;65.93;100703.03;5045046;28;47231;-71
2022/09/30 06:25:49;;;;;;;;;19.00;18.00;;;;;12.02;66.44;100721.47;5048054;28;57129;-73
2022/09/30 06:28:14;;;;;;;;;22.33;21.33;;;;;11.94;66.19;100700.06;5039961;28;45567;-70
2022/09/30 06:30:40;;;;;;;;;17.00;17.00;;;;;12.03;65.74;100713.31;5037825;28;45378;-70
2022/09/30 06:33:05;;;;;;;;;18.33;17.00;;;;;11.75;65.79;100667.25;5037359;28;46512;-70
2022/09/30 06:35:31;;;;;;;;;20.33;17.67;;;;;12.14;65.53;100726.38;5042656;28;45466;-70
2022/09/30 06:37:56;;;;;;;;;18.33;17.33;;;;;12.06;65.47;100704.19;5037488;28;45378;-75
2022/09/30 06:40:22;;;;;;;;;18.67;18.00;;;;;12.17;65.40;100725.25;5027081;28;45471;-71
2022/09/30 06:42:48;;;;;;;;;19.33;19.33;;;;;12.19;65.30;100720.59;5040813;28;47992;-71
2022/09/30 06:45:14;;;;;;;;;22.00;21.00;;;;;12.19;65.23;100724.09;5039345;28;45491;-70
2022/09/30 06:47:40;;;;;;;;;20.33;20.00;;;;;12.24;65.15;100726.31;5030025;28;45434;-70
2022/09/30 06:50:06;;;;;;;;;18.33;17.00;;;;;12.10;65.10;100702.88;5037693;28;45544;-69
2022/09/30 06:52:31;;;;;;;;;26.67;23.67;;;;;12.12;64.58;100696.38;5042555;28;46413;-69
2022/09/30 06:54:57;;;;;;;;;23.67;21.00;;;;;12.29;64.64;100718.69;5036862;28;45675;-71
2022/09/30 06:57:25;;;;;;;;;21.00;21.00;;;;;12.30;64.75;100719.50;5036484;28;45198;-72
2022/09/30 06:59:51;;;;;;;;;18.33;15.67;;;;;12.32;64.73;100712.19;5034559;28;45389;-71
2022/09/30 07:02:16;;;;;;;;;28.00;23.67;;;;;12.20;64.44;100692.94;5036966;28;45583;-73
2022/09/30 07:04:42;;;;;;;;;21.33;21.33;;;;;12.55;64.63;100733.84;5028772;28;45585;-70
2022/09/30 07:07:07;;;;;;;;;33.67;31.67;;;;;12.61;64.36;100743.88;5058066;28;45475;-73
2022/09/30 07:09:33;;;;;;;;;31.00;30.00;;;;;11.88;64.67;100598.47;5019293;28;45546;-72
2022/09/30 07:11:58;;;;;;;;;23.00;21.00;;;;;13.35;62.98;100733.44;5036894;28;46296;-72
2022/09/30 07:14:23;;;;;;;;;23.67;22.33;;;;;14.12;61.15;100731.38;5041836;28;45481;-70
2022/09/30 07:16:51;;;;;;;;;23.00;22.33;;;;;14.86;58.53;100716.91;5033871;28;45518;-72
2022/09/30 07:19:21;;;;;;;;;21.00;20.00;;;;;15.37;56.36;100655.72;5043745;28;45363;-71
2022/09/30 07:21:47;;;;;;;;;28.00;25.67;;;;;16.62;53.50;100702.66;5033424;28;46383;-71
2022/09/30 07:24:12;;;;;;;;;19.00;16.67;;;;;17.54;50.82;100703.00;5043637;28;45559;-73
2022/09/30 07:26:39;;;;;;;;;18.00;18.00;;;;;18.55;49.06;100715.31;5037724;28;45438;-71
2022/09/30 07:29:06;;;;;;;;;21.33;19.67;;;;;19.43;47.59;100721.81;5037260;28;45243;-72
2022/09/30 07:31:33;;;;;;;;;19.33;17.00;;;;;20.33;44.97;100731.31;5041453;28;46078;-70
2022/09/30 07:33:58;;;;;;;;;19.00;19.00;;;;;21.03;43.89;100717.31;5039537;28;45730;-71
2022/09/30 07:36:29;;;;;;;;;17.67;13.67;;;;;21.83;41.92;100732.16;5037614;28;45428;-71
2022/09/30 07:38:55;;;;;;;;;16.67;15.00;;;;;22.35;40.94;100694.91;5046323;28;45459;-72
2022/09/30 07:41:25;;;;;;;;;28.33;26.33;;;;;23.09;39.50;100706.66;5052718;28;46440;-76
2022/09/30 07:43:52;;;;;;;;;29.33;27.00;;;;;23.73;37.85;100702.50;5036004;28;45491;-75
2022/09/30 07:46:23;;;;;;;;;15.67;15.67;;;;;24.39;36.60;100740.31;5039778;28;45436;-69
2022/09/30 07:48:50;;;;;;;;;19.00;17.00;;;;;24.77;35.38;100736.31;5030968;28;45463;-70
2022/09/30 07:51:29;;;;;;;;;17.00;16.00;;;;;25.04;34.54;100710.31;5033287;28;45832;-70
2022/09/30 07:53:57;;;;;;;;;18.33;15.67;;;;;25.47;34.13;100739.75;5029331;28;45610;-68
2022/09/30 07:56:25;;;;;;;;;15.67;13.33;;;;;25.60;33.81;100730.44;5026863;28;45423;-73
2022/09/30 07:58:59;;;;;;;;;17.00;16.67;;;;;25.34;33.09;100703.81;5040206;28;45878;-67
2022/09/30 08:01:30;;;;;;;;;17.00;14.67;;;;;25.43;33.19;100713.28;5017921;28;48807;-69
2022/09/30 08:03:58;;;;;;;;;25.00;22.33;;;;;25.36;32.68;100707.13;5035660;28;45478;-68
2022/09/30 08:06:25;;;;;;;;;18.67;17.67;;;;;25.63;33.21;100735.44;5035782;28;45584;-74
2022/09/30 08:08:54;;;;;;;;;22.67;21.00;;;;;25.69;32.24;100718.16;5027795;28;45373;-68
2022/09/30 08:11:20;;;;;;;;;25.00;22.33;;;;;26.08;32.08;100726.44;5036128;28;45528;-67
2022/09/30 08:13:53;;;;;;;;;18.33;18.00;;;;;26.41;32.06;100741.16;5043822;28;45219;-68
2022/09/30 08:16:20;;;;;;;;;19.67;19.67;;;;;26.65;30.95;100737.22;5037808;28;45871;-68
2022/09/30 08:18:45;;;;;;;;;23.67;23.67;;;;;26.25;31.59;100723.75;5034235;28;45381;-69
2022/09/30 08:21:11;;;;;;;;;24.00;21.67;;;;;26.20;31.71;100724.47;5035944;28;46159;-69
2022/09/30 08:23:36;;;;;;;;;24.67;20.67;;;;;26.27;31.32;100729.75;5036632;28;45197;-70
2022/09/30 08:26:07;;;;;;;;;24.67;21.67;;;;;26.32;31.06;100725.22;5031347;28;45437;-69
2022/09/30 08:28:34;;;;;;;;;23.00;20.00;;;;;26.56;30.83;100739.50;5036373;28;45530;-71
2022/09/30 08:31:26;;;;;;;;;29.67;28.33;;;;;26.72;30.82;100726.94;5035827;28;45636;-70
2022/09/30 08:33:52;;;;;;;;;25.67;22.00;;;;;26.97;30.03;100740.91;5033277;28;45347;-69
2022/09/30 08:36:23;;;;;;;;;23.33;21.33;;;;;26.93;30.54;100744.41;5036857;28;45286;-68
2022/09/30 08:38:49;;;;;;;;;21.00;21.00;;;;;26.87;30.05;100740.78;5031549;28;45507;-70
2022/09/30 08:41:27;;;;;;;;;27.33;23.33;;;;;26.52;30.86;100748.44;5029072;28;45491;-69
2022/09/30 08:44:25;;;;;;;;;30.33;25.33;;;;;26.22;31.28;100738.66;5045880;28;45494;-67
2022/09/30 08:47:12;;;;;;;;;26.00;23.00;;;;;26.24;31.39;100747.44;5045966;28;45539;-67
2022/09/30 08:49:53;;;;;;;;;29.33;24.67;;;;;26.15;30.86;100709.94;5039298;28;45538;-66
2022/09/30 08:52:25;;;;;;;;;33.00;31.00;;;;;26.36;31.18;100750.94;5032807;28;45609;-73
2022/09/30 08:54:54;;;;;;;;;27.67;24.33;;;;;25.98;30.74;100718.91;5031272;28;45546;-69
2022/09/30 08:57:21;;;;;;;;;24.33;23.00;;;;;24.90;31.64;100593.81;5048831;28;45623;-68
2022/09/30 08:59:53;;;;;;;;;25.33;25.33;;;;;25.72;31.03;100727.72;5034308;28;45553;-68
2022/09/30 09:02:36;;;;;;;;;24.00;22.00;;;;;25.10;31.42;100630.44;5040599;28;46501;-74
2022/09/30 09:05:05;;;;;;;;;26.67;26.67;;;;;25.42;30.98;100723.28;5052872;28;45520;-67
2022/09/30 09:07:38;;;;;;;;;22.00;22.00;;;;;25.23;31.89;100740.91;5056455;28;45190;-68
2022/09/30 09:10:27;;;;;;;;;28.00;27.00;;;;;24.79;32.06;100691.50;5058914;28;45502;-67
2022/09/30 09:13:25;;;;;;;;;26.00;22.33;;;;;24.62;32.36;100646.25;5059137;28;45879;-72
2022/09/30 09:16:01;;;;;;;;;17.00;16.67;;;;;25.71;31.46;100748.69;5048309;28;45197;-66
2022/09/30 09:19:13;;;;;;;;;16.50;16.50;;;;;26.53;29.89;100728.28;5051855;28;45496;-69
2022/09/30 09:21:52;;;;;;;;;19.33;17.00;;;;;27.69;28.38;100744.59;5067765;28;45196;-68
2022/09/30 09:24:52;;;;;;;;;22.33;22.33;;;;;28.54;26.51;100751.91;5057023;27;47054;-68
2022/09/30 09:27:39;;;;;;;;;17.33;15.33;;;;;29.10;25.40;100760.50;5050631;28;45411;-69
2022/09/30 09:30:11;;;;;;;;;14.67;13.67;;;;;29.94;24.84;100762.16;5061738;28;45214;-71
2022/09/30 09:32:37;;;;;;;;;17.00;17.00;;;;;30.30;24.05;100730.13;5061530;28;45592;-68
2022/09/30 09:35:14;;;;;;;;;14.00;11.67;;;;;30.80;23.27;100737.47;5058656;28;46702;-74
2022/09/30 09:41:08;;;;;;;;;11.00;9.00;;;;;30.41;23.08;100761.91;5052712;28;45553;-67
2022/09/30 09:43:50;;;;;;;;;6.67;6.67;;;;;29.59;23.51;100705.34;5051935;28;45276;-69
2022/09/30 09:46:28;;;;;;;;;7.67;7.33;;;;;29.45;24.27;100772.69;5059999;28;46048;-70
2022/09/30 09:49:19;;;;;;;;;6.67;6.67;;;;;28.74;25.03;100762.16;5058657;28;45526;-70
2022/09/30 09:51:57;;;;;;;;;6.67;6.67;;;;;28.03;25.34;100765.16;5055801;28;45588;-73
2022/09/30 09:54:26;;;;;;;;;11.33;9.00;;;;;27.33;26.27;100782.34;5051342;28;45654;-73
2022/09/30 09:56:53;;;;;;;;;8.33;7.00;;;;;26.78;27.01;100757.81;5054202;28;45491;-69
2022/09/30 09:59:19;;;;;;;;;8.00;8.00;;;;;26.14;27.77;100755.44;5052451;28;45585;-68
2022/09/30 10:01:49;;;;;;;;;7.33;7.33;;;;;25.69;28.88;100766.34;5056817;28;45603;-76
2022/09/30 10:04:17;;;;;;;;;12.67;10.33;;;;;25.10;29.90;100766.47;5076214;27;45452;-70
2022/09/30 10:06:47;;;;;;;;;10.00;10.00;;;;;24.72;30.04;100774.28;5057142;28;46462;-68
2022/09/30 10:09:25;;;;;;;;;8.33;8.33;;;;;23.00;30.32;100575.97;5061122;28;45596;-70
2022/09/30 10:12:06;;;;;;;;;11.67;9.67;;;;;23.62;31.39;100767.34;5062654;28;45493;-79
2022/09/30 10:14:45;;;;;;;;;15.00;14.00;;;;;23.04;33.00;100753.47;5071986;28;45636;-68
2022/09/30 10:17:24;;;;;;;;;17.33;15.67;;;;;22.65;33.87;100769.03;5058061;28;45932;-70
2022/09/30 10:19:58;;;;;;;;;18.67;14.67;;;;;22.15;34.59;100766.31;5071451;28;45569;-71
2022/09/30 10:22:29;;;;;;;;;16.00;12.67;;;;;21.93;35.71;100769.56;5074018;28;45505;-70
2022/09/30 10:25:28;;;;;;;;;18.00;16.33;;;;;21.57;36.26;100760.19;5058084;28;46900;-69
2022/09/30 10:28:01;;;;;;;;;14.00;11.33;;;;;21.27;35.69;100757.19;5056496;28;48243;-71
2022/09/30 10:30:32;;;;;;;;;13.33;13.33;;;;;21.08;36.77;100775.09;5057682;28;45610;-69
2022/09/30 10:33:02;;;;;;;;;18.67;17.33;;;;;20.88;38.36;100771.63;5058019;28;45379;-70
2022/09/30 10:35:27;;;;;;;;;19.67;19.00;;;;;20.24;38.89;100673.19;5058428;28;45570;-70
2022/09/30 10:37:54;;;;;;;;;18.33;18.33;;;;;19.28;39.14;100531.63;5058060;28;46116;-70
2022/09/30 10:40:26;;;;;;;;;19.67;15.67;;;;;20.45;39.15;100763.97;5057793;28;45395;-69
2022/09/30 10:42:53;;;;;;;;;19.67;17.67;;;;;20.34;40.22;100773.50;5057581;28;45486;-72
2022/09/30 10:45:23;;;;;;;;;19.67;18.67;;;;;20.25;40.49;100772.03;5057942;28;45458;-70
2022/09/30 10:47:52;;;;;;;;;23.00;23.00;;;;;19.58;40.28;100673.13;5057491;28;46324;-70
2022/09/30 10:50:26;;;;;;;;;14.67;14.67;;;;;19.99;40.83;100753.94;5077270;27;45537;-69
2022/09/30 10:53:02;;;;;;;;;18.00;18.00;;;;;19.97;41.26;100745.22;5073516;28;45280;-69
2022/09/30 10:55:33;;;;;;;;;21.67;18.00;;;;;20.12;41.29;100774.72;5065081;28;45567;-69
2022/09/30 10:58:37;;;;;;;;;14.67;14.67;;;;;19.99;40.43;100774.69;5057390;28;46096;-69
2022/09/30 11:01:31;;;;;;;;;16.00;16.00;;;;;19.93;40.49;100764.72;5045342;28;46213;-69
2022/09/30 11:04:21;;;;;;;;;18.33;16.00;;;;;19.73;41.08;100764.66;5052877;28;45440;-69
2022/09/30 11:06:53;;;;;;;;;12.33;12.33;;;;;19.58;40.50;100734.31;5036055;28;45655;-70
2022/09/30 11:09:41;;;;;;;;;15.67;15.67;;;;;19.70;40.93;100749.72;5036677;28;45767;-70
2022/09/30 11:12:25;;;;;;;;;14.00;14.00;;;;;19.77;40.76;100765.09;5034432;28;45876;-69
2022/09/30 11:15:06;;;;;;;;;8.67;8.67;;;;;19.75;40.61;100765.28;5037137;28;45348;-70
2022/09/30 11:17:48;;;;;;;;;12.00;11.67;;;;;19.72;39.44;100768.41;5036962;28;45310;-70
2022/09/30 11:20:31;;;;;;;;;9.33;9.33;;;;;19.71;39.18;100767.56;5036739;28;46596;-69
2022/09/30 11:23:14;;;;;;;;;7.00;7.00;;;;;19.72;38.30;100763.00;5029075;28;45204;-68
2022/09/30 11:25:57;;;;;;;;;7.33;7.00;;;;;19.72;38.33;100768.41;5030030;28;46220;-69
2022/09/30 11:28:44;;;;;;;;;6.67;5.33;;;;;19.71;38.04;100769.44;5037478;28;45535;-69
2022/09/30 11:31:29;;;;;;;;;6.00;6.00;;;;;19.41;37.55;100713.09;5028648;28;46316;-68
2022/09/30 11:34:01;;;;;;;;;10.00;8.33;;;;;19.68;38.37;100765.28;5036419;28;45384;-69
2022/09/30 11:36:47;;;;;;;;;11.00;11.00;;;;;19.66;38.51;100763.84;5041489;28;45451;-68